Flight Track Log - Related Links

Times and Time Zones

All times are in EDT time to prevent confusion due to time zone crossing. See the AAY840 flight status page for this flight to view local times or setup timezone preferences in your user account.

Time Position Orientation Groundspeed Altitude Reporting Facility
EDT Latitude Longitude Course Direction KTS MPH feet Rate Location/Type
Sun 08:00:35 AM 27.9000 -82.6833 North 24 28 100  Level Tampa TRACON
Sun 08:02:35 AM 27.9333 -82.6833 360° North 182 209 1,000 697 Climbing Tampa TRACON
Sun 08:03:53 AM 28.0000 -82.6667 12° North 268 308 2,400 2,163 Climbing Tampa TRACON
Sun 08:05:27 AM 28.1183 -82.6336 14° North 277 319 7,200 3,039 Climbing Jacksonville Center
Sun 08:06:00 AM 28.5419 -82.6500 North  Level FlightAware Approximate
Sun 08:06:27 AM 28.1997 -82.6100 14° North 282 325 10,200  Level Jacksonville Center
Sun 08:07:00 AM 28.6486 -82.6391 North  Level FlightAware Approximate
Sun 08:07:27 AM 28.2872 -82.5861 14° North 298 343 12,400  Level Jacksonville Center
Sun 08:08:27 AM 28.3686 -82.5858 360° North 313 360 14,300 1,750 Climbing Jacksonville Center
Sun 08:09:27 AM 28.4689 -82.5950 355° North 337 388 15,900 1,350 Climbing Jacksonville Center
Sun 08:10:27 AM 28.5836 -82.6017 357° North 376 433 17,000 1,800 Climbing Jacksonville Center
Sun 08:11:27 AM 28.7153 -82.6108 357° North 408 470 19,500 2,250 Climbing Jacksonville Center
Sun 08:12:27 AM 28.8383 -82.6153 358° North 420 483 21,500 1,750 Climbing Jacksonville Center
Sun 08:13:27 AM 28.9614 -82.6244 356° North 431 496 23,000 1,750 Climbing Jacksonville Center
Sun 08:14:27 AM 29.0867 -82.6311 357° North 442 509 25,000 1,950 Climbing Jacksonville Center
Sun 08:15:27 AM 29.2142 -82.6381 357° North 442 509 26,900 1,700 Climbing Jacksonville Center
Sun 08:16:27 AM 29.3353 -82.6353 North 442 509 28,400 1,450 Climbing Jacksonville Center
Sun 08:17:27 AM 29.4583 -82.6303 North 442 509 29,800 1,600 Climbing Jacksonville Center
Sun 08:18:27 AM 29.5669 -82.6250 North 442 509 31,600 1,400 Climbing Jacksonville Center
Sun 08:19:27 AM 29.6836 -82.6153 North 431 496 32,600 700 Climbing Jacksonville Center
Sun 08:20:27 AM 29.8047 -82.6078 North 431 496 33,000 148 Climbing Jacksonville Center
Sun 08:22:09 AM 30.0200 -82.5986 North 430 495 33,000  Level Miami Center
Sun 08:23:11 AM 30.1397 -82.5911 North 431 496 33,000  Level Miami Center
Sun 08:24:12 AM 30.2503 -82.5842 North 430 495 33,000  Level Miami Center
Sun 08:25:27 AM 30.4186 -82.5747 North 424 488 33,000  Level Jacksonville Center
Sun 08:26:27 AM 30.5375 -82.5694 North 424 488 33,000  Level Jacksonville Center
Sun 08:27:27 AM 30.6586 -82.5592 North 424 488 33,000  Level Jacksonville Center
Sun 08:28:27 AM 30.7608 -82.5469 North 418 481 33,000  Level Jacksonville Center
Sun 08:29:27 AM 30.8819 -82.5319 North 418 481 33,000  Level Jacksonville Center
Sun 08:30:27 AM 31.0008 -82.5144 North 423 487 33,000  Level Jacksonville Center
Sun 08:31:27 AM 31.1178 -82.4969 North 423 487 33,000  Level Jacksonville Center
Sun 08:32:27 AM 31.2347 -82.4844 North 423 487 33,000  Level Jacksonville Center
Sun 08:33:27 AM 31.3661 -82.4569 10° North 423 487 33,000  Level Jacksonville Center
Sun 08:34:27 AM 31.4892 -82.4442 North 428 493 33,000  Level Jacksonville Center
Sun 08:35:27 AM 31.6061 -82.4267 North 428 493 33,000  Level Jacksonville Center
Sun 08:36:36 AM 31.7294 -82.4103 North 421 484 33,000  Level Atlanta Center
Sun 08:37:36 AM 31.8525 -82.3933 North 426 490 33,000  Level Atlanta Center
Sun 08:38:36 AM 31.9711 -82.3742 North 431 496 33,000  Level Atlanta Center
Sun 08:39:36 AM 32.0919 -82.3569 North 431 496 33,000  Level Atlanta Center
Sun 08:40:36 AM 32.2150 -82.3400 North 431 496 33,000  Level Atlanta Center
Sun 08:41:36 AM 32.3317 -82.3231 North 431 496 33,000  Level Atlanta Center
Sun 08:42:36 AM 32.4544 -82.3058 North 431 496 33,000  Level Atlanta Center
Sun 08:43:36 AM 32.5733 -82.2914 North 431 496 33,000  Level Atlanta Center
Sun 08:44:36 AM 32.6897 -82.2717 North 424 488 33,000  Level Atlanta Center
Sun 08:45:36 AM 32.8108 -82.2569 North 424 488 33,000  Level Atlanta Center
Sun 08:46:36 AM 32.9272 -82.2372 North 424 488 33,000  Level Atlanta Center
Sun 08:47:36 AM 33.0461 -82.2222 North 424 488 33,000  Level Atlanta Center
Sun 08:48:36 AM 33.1647 -82.2025 North 424 488 33,000  Level Atlanta Center
Sun 08:49:36 AM 33.2856 -82.1850 North 424 488 33,000  Level Atlanta Center
Sun 08:50:36 AM 33.4022 -82.1675 North 424 488 33,000  Level Atlanta Center
Sun 08:51:36 AM 33.5231 -82.1500 North 424 488 33,000  Level Atlanta Center
Sun 08:52:36 AM 33.6564 -82.1297 North 429 494 33,000  Level Atlanta Center
Sun 08:53:36 AM 33.7769 -82.1119 North 429 494 33,000  Level Atlanta Center
Sun 08:54:36 AM 33.8978 -82.0967 North 429 494 33,000  Level Atlanta Center
Sun 08:55:36 AM 34.0186 -82.0789 North 429 494 33,000  Level Atlanta Center
Sun 08:56:36 AM 34.1372 -82.0611 North 429 494 33,000  Level Atlanta Center
Sun 08:57:36 AM 34.2581 -82.0433 North 429 494 33,000  Level Atlanta Center
Sun 08:58:36 AM 34.3767 -82.0253 North 423 487 33,000  Level Atlanta Center
Sun 08:59:36 AM 34.4956 -82.0100 North 428 493 33,000  Level Atlanta Center
Sun 09:00:36 AM 34.6142 -81.9919 North 428 493 33,000 -650 Level Atlanta Center
Sun 09:01:36 AM 34.7244 -81.9767 North 428 493 31,700 -1,400 Descending Atlanta Center
Sun 09:02:36 AM 34.8431 -81.9583 North 428 493 30,200 -1,500 Descending Atlanta Center
Sun 09:03:36 AM 34.9639 -81.9428 North 428 493 28,700 -1,700 Descending Atlanta Center
Sun 09:04:36 AM 35.0828 -81.9397 North 423 487 26,800 -2,200 Descending Atlanta Center
Sun 09:05:36 AM 35.1978 -81.9572 353° North 417 480 24,300 -1,700 Descending Atlanta Center
Sun 09:06:36 AM 35.3086 -81.9697 355° North 411 473 23,400 -1,650 Descending Atlanta Center
Sun 09:07:36 AM 35.4256 -81.9844 354° North 399 459 21,000 -2,350 Descending Atlanta Center
Sun 09:08:36 AM 35.5303 -82.0022 352° North 382 440 18,700 -2,300 Descending Atlanta Center
Sun 09:09:36 AM 35.6328 -82.0125 355° North 376 433 16,400 -2,150 Descending Atlanta Center
Sun 09:10:36 AM 35.7289 -82.0306 351° North 360 414 14,400 -1,950 Descending Atlanta Center
Sun 09:11:36 AM 35.8231 -82.0436 354° North 347 399 12,500 -1,650 Descending Atlanta Center
Sun 09:12:36 AM 35.9128 -82.0542 355° North 333 383 11,100 -750 Descending Atlanta Center
Sun 09:13:36 AM 36.0008 -82.0675 353° North 328 377 11,000 -50 Descending Atlanta Center
Sun 09:14:36 AM 36.0842 -82.0758 355° North 318 366 11,000 -400 Level Atlanta Center
Sun 09:15:36 AM 36.1617 -82.0894 352° North 296 341 10,200 -1,250 Descending Atlanta Center
Sun 09:16:36 AM 36.2328 -82.1056 350° North 271 312 8,500 -1,450 Descending Atlanta Center
Sun 09:17:36 AM 36.2939 -82.1453 332° Northwest 253 291 7,300 -600 Descending Atlanta Center
Sun 09:18:36 AM 36.3508 -82.1853 331° Northwest 241 277 7,300 -700 Level Atlanta Center
Sun 09:19:36 AM 36.4014 -82.2178 333° Northwest 222 255 5,900 -900 Descending Atlanta Center
Sun 09:20:36 AM 36.4519 -82.2500 333° Northwest 203 234 5,500 -900 Descending Atlanta Center
Sun 09:21:36 AM 36.4983 -82.2825 331° Northwest 203 234 4,100 -1,150 Descending Atlanta Center
Sun 09:22:36 AM 36.5303 -82.3258 313° West 184 212 3,200 -900 Descending Atlanta Center
Sun 09:24:00 AM 36.4667 -82.4000 270° West  Level FlightAware Approximate
Sun 09:31:00 AM 36.4752 -82.4074 270° West  Level Estimated

Login

Don't have an account? Register now (free) for customized features, flight alerts, and more!